Morrison, Colorado
Current Conditions -  °F | °C
As of 8:51 PM on Friday 24 Oct 2014 (Local Time) from KBJC Reporting Station
Clear Clear  
Wind Chill: 66°   Ceiling: Unl
Heat Index: 66°   Visibility: 50mi
Dew Point: 23°   Wind: 3mph
Humidity: 19%   Direction: 270°W
Pressure: 30.22"   Gusts: NA
Location:  39.65°N, 105.19°W
Report Text: KBJC 250251Z 27003KT 50SM SKC 19/M05 A3022
Loading
Personal Weather Stations






























Interactive Weather Map
Tropical Storm Tracking
New forecast layout! Learn more

10-Day Weather Forecast

Advertisements
Track Severe Weather on mobile